createdAt,value
2022-08-28T00:01:13.295Z,79.82
2022-08-28T00:03:39.642Z,79.68
2022-08-28T00:06:06.251Z,80.64
2022-08-28T00:08:32.625Z,81.14
2022-08-28T00:10:59.073Z,81.28
2022-08-28T00:13:26.062Z,81.49
2022-08-28T00:15:56.923Z,81.64
2022-08-28T00:18:23.592Z,81.70
2022-08-28T00:20:51.248Z,82.02
2022-08-28T00:23:18.344Z,81.94
2022-08-28T00:25:44.866Z,82.50
2022-08-28T00:28:24.325Z,82.66
2022-08-28T00:30:53.938Z,82.74
2022-08-28T00:33:23.893Z,82.66
2022-08-28T00:35:51.406Z,82.59
2022-08-28T00:38:19.271Z,83.14
2022-08-28T00:40:49.553Z,82.64
2022-08-28T00:43:36.782Z,83.02
2022-08-28T00:46:06.637Z,83.22
2022-08-28T00:48:33.373Z,82.75
2022-08-28T00:51:00.932Z,82.50
2022-08-28T00:53:30.037Z,83.09
2022-08-28T00:55:59.635Z,83.20
2022-08-28T00:58:26.078Z,83.45
2022-08-28T01:00:52.473Z,83.03
2022-08-28T01:03:18.870Z,82.79
2022-08-28T01:05:45.332Z,82.50
2022-08-28T01:08:11.929Z,83.54
2022-08-28T01:10:42.333Z,83.43
2022-08-28T01:13:08.973Z,82.52
2022-08-28T01:15:37.475Z,82.45
2022-08-28T01:18:08.395Z,83.41
2022-08-28T01:20:42.112Z,83.25
2022-08-28T01:23:34.341Z,82.90
2022-08-28T01:26:00.780Z,83.17
2022-08-28T01:28:27.932Z,83.25
2022-08-28T01:30:54.335Z,82.98
2022-08-28T01:33:27.906Z,82.40
2022-08-28T01:35:54.901Z,82.41
2022-08-28T01:38:26.737Z,82.34
2022-08-28T01:40:54.460Z,83.16
2022-08-28T01:43:23.764Z,82.69
2022-08-28T01:45:54.437Z,82.51
2022-08-28T01:48:23.580Z,82.88
2022-08-28T01:50:50.220Z,82.49
2022-08-28T01:53:19.641Z,82.20
2022-08-28T01:55:52.115Z,82.17
2022-08-28T01:58:19.137Z,82.04
2022-08-28T02:00:45.587Z,82.20
2022-08-28T02:03:11.982Z,82.19
2022-08-28T02:05:39.868Z,82.52
2022-08-28T02:08:07.805Z,82.22
2022-08-28T02:10:36.708Z,82.46
2022-08-28T02:13:05.488Z,82.19
2022-08-28T02:15:32.956Z,82.49
2022-08-28T02:18:00.231Z,82.09
2022-08-28T02:20:27.493Z,82.20
2022-08-28T02:22:53.900Z,82.61
2022-08-28T02:25:20.273Z,82.86
2022-08-28T02:27:46.724Z,82.82
2022-08-28T02:30:16.296Z,82.70
2022-08-28T02:32:44.469Z,82.78
2022-08-28T02:35:12.254Z,82.88
2022-08-28T02:37:38.883Z,82.54
2022-08-28T02:40:06.071Z,82.81
2022-08-28T02:42:32.450Z,82.64
2022-08-28T02:44:58.859Z,83.20
2022-08-28T02:47:25.300Z,83.29
2022-08-28T02:49:51.650Z,83.21
2022-08-28T02:52:18.117Z,83.37
2022-08-28T02:54:44.545Z,83.05
2022-08-28T02:57:10.877Z,83.50
2022-08-28T02:59:38.197Z,83.19
2022-08-28T03:02:06.252Z,83.47
2022-08-28T03:04:34.188Z,83.45
2022-08-28T03:07:00.558Z,83.36
2022-08-28T03:09:27.093Z,83.79
2022-08-28T03:11:53.655Z,83.59
2022-08-28T03:14:23.535Z,84.01
2022-08-28T03:16:49.941Z,83.65
2022-08-28T03:19:16.567Z,83.85
2022-08-28T03:21:43.018Z,83.97
2022-08-28T03:24:09.572Z,83.77
2022-08-28T03:26:36.153Z,83.81
2022-08-28T03:29:02.677Z,83.93
2022-08-28T03:31:30.209Z,83.76
2022-08-28T03:33:56.569Z,83.74
2022-08-28T03:36:24.945Z,83.96
2022-08-28T03:38:53.249Z,83.79
2022-08-28T03:41:21.768Z,83.77
2022-08-28T03:43:48.127Z,83.83
2022-08-28T03:46:22.202Z,83.86
2022-08-28T03:48:48.569Z,84.03
2022-08-28T03:51:29.408Z,84.39
2022-08-28T03:53:57.876Z,84.27
2022-08-28T03:56:26.231Z,84.80
2022-08-28T03:58:55.057Z,84.85
2022-08-28T04:01:21.927Z,84.52
2022-08-28T04:03:48.562Z,84.57
2022-08-28T04:06:15.204Z,85.04
2022-08-28T04:08:42.077Z,85.26
2022-08-28T04:11:08.451Z,85.91
2022-08-28T04:13:34.804Z,86.09
2022-08-28T04:16:05.067Z,85.96
2022-08-28T04:18:32.740Z,86.43
2022-08-28T04:21:07.569Z,85.92
2022-08-28T04:23:35.623Z,85.38
2022-08-28T04:26:05.149Z,85.00
2022-08-28T04:28:31.897Z,85.02
2022-08-28T04:30:58.884Z,85.04
2022-08-28T04:33:27.270Z,85.46
2022-08-28T04:35:54.455Z,85.04
2022-08-28T04:38:21.086Z,85.53
2022-08-28T04:40:48.097Z,85.60
2022-08-28T04:43:14.595Z,85.82
2022-08-28T04:45:45.596Z,85.94
2022-08-28T04:48:13.765Z,86.21
2022-08-28T04:50:48.422Z,86.12
2022-08-28T04:53:17.210Z,85.88
2022-08-28T04:55:54.557Z,85.48
2022-08-28T04:58:24.299Z,85.58
2022-08-28T05:00:52.829Z,85.05
2022-08-28T05:03:19.795Z,84.83
2022-08-28T05:05:49.829Z,84.72
2022-08-28T05:08:18.220Z,85.03
2022-08-28T05:10:44.974Z,84.98
2022-08-28T05:13:13.013Z,85.10
2022-08-28T05:15:40.357Z,85.76
2022-08-28T05:18:06.737Z,85.47
2022-08-28T05:20:37.957Z,85.28
2022-08-28T05:23:06.154Z,85.18
2022-08-28T05:25:37.177Z,84.96
2022-08-28T05:28:04.229Z,85.98
2022-08-28T05:30:30.549Z,86.34
2022-08-28T05:32:56.958Z,86.89
2022-08-28T05:35:23.338Z,86.09
2022-08-28T05:37:49.682Z,84.48
2022-08-28T05:40:16.647Z,82.05
2022-08-28T05:42:43.058Z,79.24
2022-08-28T05:45:09.452Z,75.59
2022-08-28T05:47:35.784Z,73.91
2022-08-28T05:50:02.152Z,71.36
2022-08-28T05:52:28.660Z,68.73
2022-08-28T05:54:55.541Z,66.42
2022-08-28T05:57:21.868Z,64.65
2022-08-28T05:59:48.312Z,62.88
2022-08-28T06:02:14.676Z,60.79
2022-08-28T06:04:41.016Z,59.35
2022-08-28T06:07:07.469Z,57.66
2022-08-28T06:09:33.860Z,56.60
2022-08-28T06:12:01.952Z,56.53
2022-08-28T06:14:29.419Z,56.81
2022-08-28T06:16:56.803Z,57.62
2022-08-28T06:19:25.868Z,58.36
2022-08-28T06:21:56.218Z,58.62
2022-08-28T06:24:23.469Z,58.61
2022-08-28T06:26:49.828Z,57.02
2022-08-28T06:29:16.501Z,55.52
2022-08-28T06:31:42.972Z,53.85
2022-08-28T06:34:09.875Z,52.24
2022-08-28T06:36:40.817Z,49.89
2022-08-28T06:39:08.891Z,48.73
2022-08-28T06:41:35.677Z,46.94
2022-08-28T06:44:02.210Z,45.42
2022-08-28T06:46:28.692Z,44.48
2022-08-28T06:48:55.077Z,43.76
2022-08-28T06:51:24.869Z,42.42
2022-08-28T06:53:51.671Z,41.48
2022-08-28T06:56:26.187Z,40.22
2022-08-28T06:58:55.128Z,39.59
2022-08-28T07:01:27.622Z,37.81
2022-08-28T07:03:55.783Z,37.69
2022-08-28T07:06:23.297Z,37.38
2022-08-28T07:08:50.277Z,36.92
2022-08-28T07:11:26.664Z,35.41
2022-08-28T07:13:54.788Z,35.12
2022-08-28T07:16:24.527Z,32.07
2022-08-28T07:18:51.015Z,32.49
2022-08-28T07:21:17.642Z,35.00
2022-08-28T07:23:44.913Z,34.04
2022-08-28T07:26:15.683Z,31.62
2022-08-28T07:28:42.333Z,32.78
2022-08-28T07:31:11.824Z,32.41
2022-08-28T07:33:40.213Z,30.64
2022-08-28T07:36:15.721Z,31.29
2022-08-28T07:38:48.461Z,31.86
2022-08-28T07:41:20.167Z,30.18
2022-08-28T07:43:46.897Z,31.17
2022-08-28T07:46:13.338Z,31.83
2022-08-28T07:48:41.270Z,33.41
2022-08-28T07:51:09.061Z,35.04
2022-08-28T07:53:36.653Z,33.57
2022-08-28T07:56:04.409Z,33.22
2022-08-28T07:58:30.768Z,32.88
2022-08-28T08:00:58.434Z,33.58
2022-08-28T08:03:24.941Z,34.87
2022-08-28T08:06:02.494Z,34.98
2022-08-28T08:08:33.329Z,34.62
2022-08-28T08:11:11.286Z,34.83
2022-08-28T08:13:43.696Z,35.41
2022-08-28T08:16:13.285Z,35.38
2022-08-28T08:18:41.262Z,36.03
2022-08-28T08:21:10.047Z,36.41
2022-08-28T08:23:36.675Z,36.53
2022-08-28T08:26:06.928Z,37.21
2022-08-28T08:28:34.917Z,36.76
2022-08-28T08:31:11.488Z,36.72
2022-08-28T08:33:40.811Z,36.65
2022-08-28T08:36:07.692Z,38.00
2022-08-28T08:38:35.065Z,38.79
2022-08-28T08:41:05.617Z,36.42
2022-08-28T08:43:45.678Z,35.43
2022-08-28T08:46:12.193Z,36.64
2022-08-28T08:48:42.962Z,35.51
2022-08-28T08:51:25.661Z,32.91
2022-08-28T08:54:05.303Z,32.62
2022-08-28T08:56:34.486Z,34.07
2022-08-28T08:59:04.213Z,35.10
2022-08-28T09:01:41.787Z,36.82
2022-08-28T09:04:15.911Z,38.10
2022-08-28T09:07:09.741Z,38.51
2022-08-28T09:09:42.172Z,38.53
2022-08-28T09:12:14.175Z,34.80
2022-08-28T09:14:49.602Z,35.84
2022-08-28T09:17:23.385Z,33.77
2022-08-28T09:19:49.745Z,34.65
2022-08-28T09:22:16.342Z,34.13
2022-08-28T09:24:43.527Z,35.86
2022-08-28T09:27:29.902Z,38.41
2022-08-28T09:30:07.436Z,37.83
2022-08-28T09:32:37.493Z,38.23
2022-08-28T09:35:39.208Z,39.48
2022-08-28T09:38:27.685Z,40.35
2022-08-28T09:41:10.446Z,40.49
2022-08-28T09:43:37.593Z,41.24
2022-08-28T09:46:07.929Z,40.94
2022-08-28T09:48:41.536Z,39.64
2022-08-28T09:51:11.367Z,40.44
2022-08-28T09:54:06.375Z,41.34
2022-08-28T09:56:39.515Z,41.24
2022-08-28T09:59:08.993Z,40.42
2022-08-28T10:01:44.601Z,39.19
2022-08-28T10:04:14.370Z,38.80
2022-08-28T10:06:43.778Z,38.23
2022-08-28T10:09:47.959Z,39.30
2022-08-28T10:12:20.274Z,38.64
2022-08-28T10:14:58.869Z,40.02
2022-08-28T10:17:53.311Z,40.43
2022-08-28T10:20:25.821Z,42.04
2022-08-28T10:23:17.670Z,41.07
2022-08-28T10:26:28.566Z,39.64
2022-08-28T10:28:59.974Z,40.30
2022-08-28T10:31:56.461Z,40.05
2022-08-28T10:34:50.529Z,39.76
2022-08-28T10:37:28.088Z,40.91
2022-08-28T10:40:00.522Z,42.27
2022-08-28T10:42:36.479Z,43.13
2022-08-28T10:45:10.562Z,43.27
2022-08-28T10:47:40.088Z,43.03
2022-08-28T10:50:21.899Z,42.99
2022-08-28T10:53:01.918Z,41.82
2022-08-28T10:55:59.796Z,41.62
2022-08-28T10:58:27.399Z,41.96
2022-08-28T11:00:58.883Z,40.84
2022-08-28T11:03:35.691Z,41.86
2022-08-28T11:06:13.804Z,41.04
2022-08-28T11:08:40.405Z,42.35
2022-08-28T11:11:12.846Z,42.29
2022-08-28T11:13:48.321Z,43.48
2022-08-28T11:16:20.591Z,44.69
2022-08-28T11:18:49.774Z,43.87
2022-08-28T11:21:23.986Z,40.79
2022-08-28T11:24:01.216Z,39.98
2022-08-28T11:26:40.036Z,40.29
2022-08-28T11:29:06.882Z,41.14
2022-08-28T11:31:37.927Z,40.19
2022-08-28T11:34:04.341Z,40.51
2022-08-28T11:36:30.657Z,41.27
2022-08-28T11:38:56.945Z,40.18
2022-08-28T11:41:38.324Z,37.45
2022-08-28T11:44:10.708Z,37.85
2022-08-28T11:46:43.311Z,38.26
2022-08-28T11:49:31.515Z,39.52
2022-08-28T11:52:16.757Z,41.11
2022-08-28T11:54:51.492Z,41.66
2022-08-28T11:57:24.227Z,42.11
2022-08-28T12:00:26.113Z,42.11
2022-08-28T12:03:15.889Z,40.92
2022-08-28T12:05:48.584Z,41.52
2022-08-28T12:08:49.740Z,43.00
2022-08-28T12:11:41.069Z,43.58
2022-08-28T12:14:12.391Z,41.52
2022-08-28T12:17:03.337Z,39.59
2022-08-28T12:19:41.225Z,41.13
2022-08-28T12:22:21.836Z,40.96
2022-08-28T12:24:57.038Z,41.19
2022-08-28T12:27:24.911Z,41.27
2022-08-28T12:29:55.496Z,41.23
2022-08-28T12:32:48.646Z,43.21
2022-08-28T12:35:21.475Z,43.40
2022-08-28T12:37:53.764Z,43.24
2022-08-28T12:40:49.182Z,43.77
2022-08-28T12:43:25.719Z,40.00
2022-08-28T12:45:56.407Z,39.21
2022-08-28T12:48:25.818Z,39.77
2022-08-28T12:50:58.041Z,42.66
2022-08-28T12:53:25.941Z,43.87
2022-08-28T12:55:53.561Z,44.15
2022-08-28T12:58:30.896Z,44.93
2022-08-28T13:01:02.080Z,45.43
2022-08-28T13:03:28.788Z,43.22
2022-08-28T13:06:04.668Z,41.76
2022-08-28T13:08:32.823Z,41.31
2022-08-28T13:10:59.392Z,41.43
2022-08-28T13:13:34.556Z,41.23
2022-08-28T13:16:04.796Z,41.84
2022-08-28T13:18:39.989Z,41.91
2022-08-28T13:21:32.820Z,39.98
2022-08-28T13:24:21.764Z,39.68
2022-08-28T13:27:09.354Z,41.73
2022-08-28T13:29:36.911Z,41.85
2022-08-28T13:32:09.899Z,43.14
2022-08-28T13:34:38.903Z,42.77
2022-08-28T13:37:51.580Z,43.74
2022-08-28T13:43:11.822Z,42.52
2022-08-28T13:45:43.390Z,42.08
2022-08-28T13:48:15.859Z,42.02
2022-08-28T13:50:47.194Z,41.86
2022-08-28T13:53:15.456Z,41.40
2022-08-28T13:55:41.797Z,40.81
2022-08-28T13:58:08.220Z,41.33
2022-08-28T14:00:39.606Z,41.42
2022-08-28T14:03:06.001Z,42.21
2022-08-28T14:05:32.438Z,41.82
2022-08-28T14:07:58.826Z,41.81
2022-08-28T14:10:25.277Z,42.42
2022-08-28T14:12:51.700Z,43.05
2022-08-28T14:15:18.098Z,42.16
2022-08-28T14:17:45.093Z,42.01
2022-08-28T14:20:12.789Z,42.22
2022-08-28T14:22:39.206Z,41.82
2022-08-28T14:25:06.233Z,41.18
2022-08-28T14:27:32.643Z,41.50
2022-08-28T14:29:58.982Z,40.92
2022-08-28T14:32:25.341Z,41.00
2022-08-28T14:34:51.713Z,41.09
2022-08-28T14:37:18.066Z,40.76
2022-08-28T14:39:44.480Z,41.14
2022-08-28T14:42:12.945Z,41.63
2022-08-28T14:44:39.716Z,41.99
2022-08-28T14:47:06.112Z,41.94
2022-08-28T14:49:32.543Z,41.12
2022-08-28T14:51:58.908Z,41.34
2022-08-28T14:54:25.882Z,41.37
2022-08-28T14:56:54.024Z,42.05
2022-08-28T14:59:24.623Z,42.76
2022-08-28T15:01:53.222Z,42.75
2022-08-28T15:04:22.325Z,41.41
2022-08-28T15:06:50.031Z,42.96
2022-08-28T15:09:17.459Z,41.66
2022-08-28T15:11:44.110Z,41.98
2022-08-28T15:14:11.758Z,41.83
2022-08-28T15:16:42.523Z,41.28
2022-08-28T15:19:09.776Z,42.07
2022-08-28T15:21:40.164Z,41.11
2022-08-28T15:24:07.588Z,40.60
2022-08-28T15:26:34.324Z,41.53
2022-08-28T15:29:01.354Z,41.16
2022-08-28T15:31:34.138Z,40.14
2022-08-28T15:34:13.567Z,40.88
2022-08-28T15:36:42.043Z,41.38
2022-08-28T15:39:09.373Z,41.13
2022-08-28T15:41:35.836Z,41.53
2022-08-28T15:44:03.398Z,42.03
2022-08-28T15:46:33.065Z,43.29
2022-08-28T15:49:03.925Z,43.76
2022-08-28T15:51:35.105Z,44.83
2022-08-28T15:54:02.368Z,43.65
2022-08-28T15:56:28.728Z,43.84
2022-08-28T15:58:55.107Z,44.15
2022-08-28T16:01:21.677Z,44.13
2022-08-28T16:03:48.104Z,43.23
2022-08-28T16:06:17.513Z,43.52
2022-08-28T16:08:44.341Z,42.99
2022-08-28T16:11:14.484Z,43.78
2022-08-28T16:13:40.816Z,42.31
2022-08-28T16:16:07.270Z,42.78
2022-08-28T16:18:33.722Z,42.16
2022-08-28T16:21:04.171Z,42.22
2022-08-28T16:23:32.197Z,43.06
2022-08-28T16:25:59.709Z,44.18
2022-08-28T16:28:26.126Z,44.82
2022-08-28T16:30:54.011Z,45.47
2022-08-28T16:33:20.402Z,46.46
2022-08-28T16:35:55.008Z,47.10
2022-08-28T16:38:22.709Z,48.07
2022-08-28T16:40:49.300Z,49.00
2022-08-28T16:43:15.855Z,49.13
2022-08-28T16:45:44.297Z,50.06
2022-08-28T16:48:12.290Z,50.77
2022-08-28T16:50:40.376Z,51.44
2022-08-28T16:53:07.383Z,51.06
2022-08-28T16:55:34.249Z,52.27
2022-08-28T16:58:00.633Z,52.56
2022-08-28T17:00:27.067Z,52.96
2022-08-28T17:02:54.132Z,53.06
2022-08-28T17:05:20.720Z,53.88
2022-08-28T17:07:48.235Z,52.99
2022-08-28T17:10:17.759Z,53.68
2022-08-28T17:12:44.169Z,54.25
2022-08-28T17:15:11.427Z,53.42
2022-08-28T17:17:38.179Z,53.49
2022-08-28T17:20:05.962Z,53.54
2022-08-28T17:22:32.517Z,53.76
2022-08-28T17:25:06.311Z,54.16
2022-08-28T17:27:33.662Z,54.12
2022-08-28T17:30:00.446Z,54.89
2022-08-28T17:32:27.625Z,55.49
2022-08-28T17:34:54.008Z,55.29
2022-08-28T17:37:20.378Z,55.36
2022-08-28T17:39:47.691Z,55.63
2022-08-28T17:42:14.077Z,55.95
2022-08-28T17:44:40.493Z,56.00
2022-08-28T17:47:07.412Z,56.31
2022-08-28T17:49:33.837Z,56.36
2022-08-28T17:52:00.267Z,57.06
2022-08-28T17:54:26.623Z,57.07
2022-08-28T17:56:53.440Z,57.64
2022-08-28T17:59:21.192Z,58.28
2022-08-28T18:01:47.700Z,59.23
2022-08-28T18:04:18.005Z,58.72
2022-08-28T18:06:47.991Z,59.15
2022-08-28T18:09:14.743Z,59.98
2022-08-28T18:11:41.734Z,60.45
2022-08-28T18:14:08.177Z,60.46
2022-08-28T18:16:36.428Z,61.74
2022-08-28T18:19:05.308Z,62.41
2022-08-28T18:21:32.129Z,62.80
2022-08-28T18:23:58.824Z,62.30
2022-08-28T18:26:25.351Z,62.93
2022-08-28T18:28:51.847Z,62.35
2022-08-28T18:31:18.527Z,62.75
2022-08-28T18:33:46.120Z,63.35
2022-08-28T18:36:14.232Z,63.20
2022-08-28T18:38:41.923Z,63.28
2022-08-28T18:41:09.445Z,64.44
2022-08-28T18:43:36.281Z,65.38
2022-08-28T18:46:04.631Z,65.19
2022-08-28T18:48:31.923Z,66.27
2022-08-28T18:50:58.243Z,66.70
2022-08-28T18:53:24.895Z,66.62
2022-08-28T18:55:53.796Z,66.69
2022-08-28T18:58:21.058Z,66.59
2022-08-28T19:00:47.590Z,66.85
2022-08-28T19:03:14.009Z,67.35
2022-08-28T19:05:40.400Z,67.33
2022-08-28T19:08:07.170Z,68.21
2022-08-28T19:10:35.168Z,69.27
2022-08-28T19:13:02.628Z,70.39
2022-08-28T19:15:29.986Z,70.27
2022-08-28T19:17:56.455Z,70.71
2022-08-28T19:20:22.979Z,70.96
2022-08-28T19:22:49.697Z,70.68
2022-08-28T19:25:28.679Z,70.75
2022-08-28T19:27:59.822Z,71.37
2022-08-28T19:30:28.268Z,70.77
2022-08-28T19:32:55.238Z,70.60
2022-08-28T19:35:24.093Z,71.44
2022-08-28T19:37:54.374Z,72.06
2022-08-28T19:40:21.646Z,71.78
2022-08-28T19:42:48.501Z,72.91
2022-08-28T19:45:15.301Z,72.76
2022-08-28T19:47:42.511Z,72.35
2022-08-28T19:50:11.310Z,72.92
2022-08-28T19:52:37.794Z,73.69
2022-08-28T19:55:05.758Z,74.58
2022-08-28T19:57:33.129Z,75.08
2022-08-28T19:59:59.569Z,74.03
2022-08-28T20:02:29.153Z,74.35
2022-08-28T20:04:55.569Z,74.94
2022-08-28T20:07:22.344Z,74.67
2022-08-28T20:09:48.730Z,75.05
2022-08-28T20:12:15.100Z,74.52
2022-08-28T20:14:41.462Z,74.43
2022-08-28T20:17:07.876Z,73.55
2022-08-28T20:19:34.233Z,73.29
2022-08-28T20:22:00.585Z,73.25
2022-08-28T20:24:27.082Z,73.46
2022-08-28T20:26:53.650Z,73.05
2022-08-28T20:29:20.685Z,73.58
2022-08-28T20:31:47.869Z,73.90
2022-08-28T20:34:17.172Z,74.58
2022-08-28T20:36:43.986Z,75.25
2022-08-28T20:39:10.405Z,75.75
2022-08-28T20:41:38.931Z,75.53
2022-08-28T20:44:07.112Z,75.56
2022-08-28T20:46:39.817Z,75.03
2022-08-28T20:49:08.992Z,74.84
2022-08-28T20:51:35.519Z,74.89
2022-08-28T20:54:01.845Z,74.72
2022-08-28T20:56:28.188Z,74.67
2022-08-28T20:58:54.559Z,74.76
2022-08-28T21:01:20.944Z,74.51
2022-08-28T21:03:47.438Z,74.73
2022-08-28T21:06:13.781Z,74.99
2022-08-28T21:08:40.171Z,74.42
2022-08-28T21:11:06.545Z,74.62
2022-08-28T21:13:32.873Z,74.31
2022-08-28T21:15:59.219Z,74.30
2022-08-28T21:18:25.636Z,74.68
2022-08-28T21:20:54.580Z,75.58
2022-08-28T21:23:20.937Z,75.22
2022-08-28T21:25:47.260Z,75.56
2022-08-28T21:28:13.687Z,75.33
2022-08-28T21:30:40.978Z,75.70
2022-08-28T21:33:07.346Z,75.58
2022-08-28T21:35:34.540Z,76.54
2022-08-28T21:38:00.878Z,77.47
2022-08-28T21:40:27.251Z,77.13
2022-08-28T21:42:53.657Z,77.06
2022-08-28T21:45:20.016Z,76.74
2022-08-28T21:47:46.424Z,76.49
2022-08-28T21:50:12.941Z,76.43
2022-08-28T21:52:39.999Z,76.60
2022-08-28T21:55:10.697Z,76.22
2022-08-28T21:57:37.260Z,76.80
2022-08-28T22:00:09.998Z,76.44
2022-08-28T22:02:36.400Z,76.52
2022-08-28T22:05:03.491Z,76.84
2022-08-28T22:07:29.965Z,76.88
2022-08-28T22:09:56.299Z,77.44
2022-08-28T22:12:22.719Z,77.64
2022-08-28T22:14:49.218Z,77.59
2022-08-28T22:17:15.697Z,77.57
2022-08-28T22:19:42.343Z,78.12
2022-08-28T22:22:12.888Z,78.43
2022-08-28T22:24:39.285Z,78.92
2022-08-28T22:27:05.736Z,78.16
2022-08-28T22:29:32.379Z,78.38
2022-08-28T22:31:58.729Z,78.35
2022-08-28T22:34:25.101Z,78.31
2022-08-28T22:36:51.437Z,77.84
2022-08-28T22:39:17.807Z,77.89
2022-08-28T22:41:44.133Z,77.61
2022-08-28T22:44:10.482Z,78.59
2022-08-28T22:46:36.935Z,79.23
2022-08-28T22:49:03.838Z,79.17
2022-08-28T22:51:32.688Z,79.10
2022-08-28T22:53:59.028Z,78.26
2022-08-28T22:56:25.368Z,78.77
2022-08-28T22:58:51.735Z,79.20
2022-08-28T23:01:22.688Z,79.33
2022-08-28T23:03:49.412Z,79.63
2022-08-28T23:06:16.089Z,79.58
2022-08-28T23:08:42.986Z,78.85
2022-08-28T23:11:09.882Z,82.31
2022-08-28T23:13:36.682Z,80.76
2022-08-28T23:16:03.421Z,80.98
2022-08-28T23:18:41.515Z,80.88
2022-08-28T23:21:12.980Z,80.71
2022-08-28T23:23:39.376Z,80.94
2022-08-28T23:26:10.600Z,80.39
2022-08-28T23:28:36.936Z,80.86
2022-08-28T23:31:03.284Z,80.64
2022-08-28T23:33:29.633Z,80.87
2022-08-28T23:35:55.988Z,81.57
2022-08-28T23:38:22.357Z,81.05
2022-08-28T23:40:48.810Z,81.02
2022-08-28T23:43:17.302Z,82.58
2022-08-28T23:45:44.017Z,84.64
2022-08-28T23:48:10.942Z,83.22
2022-08-28T23:50:39.995Z,82.55
2022-08-28T23:53:08.514Z,82.91
2022-08-28T23:55:35.744Z,83.14
2022-08-28T23:58:03.572Z,83.91
